Owyhee, Nevada
Current Conditions -  °F | °C
As of 2:18 AM on Saturday 25 Oct 2014 (Local Time) from KMUO Reporting Station
Drizzle Drizzle  
Wind Chill: 39°   Ceiling: Unl
Heat Index: 43°   Visibility: 4mi
Dew Point: 43°   Wind: 6mph
Humidity: 100%   Direction: 50°NE
Pressure: 29.91"   Gusts: NA
Location:  41.95°N, 116.09°W
Report Text: KMUO 250918Z AUTO 05005KT 4SM R12/4500FT -DZ BR CLR 06/06 A2991 RMK AO2
Loading
Personal Weather Stations






























Interactive Weather Map
Tropical Storm Tracking
New forecast layout! Learn more

10-Day Weather Forecast

Advertisements
Track Severe Weather on mobile